createdAt,value
2022-08-25T00:01:20.699Z,100510.31
2022-08-25T00:03:49.407Z,100471.06
2022-08-25T00:06:16.700Z,100507.19
2022-08-25T00:08:44.539Z,100505.97
2022-08-25T00:11:17.457Z,100496.84
2022-08-25T00:13:47.233Z,100513.47
2022-08-25T00:16:16.945Z,100530.75
2022-08-25T00:18:48.230Z,100510.56
2022-08-25T00:21:16.709Z,100518.66
2022-08-25T00:23:45.487Z,100531.16
2022-08-25T00:26:13.586Z,100528.25
2022-08-25T00:28:40.498Z,100487.72
2022-08-25T00:31:11.703Z,100526.19
2022-08-25T00:33:38.715Z,100456.53
2022-08-25T00:36:06.327Z,100520.78
2022-08-25T00:38:33.210Z,100504.75
2022-08-25T00:41:06.193Z,100515.56
2022-08-25T00:43:56.719Z,100507.47
2022-08-25T00:46:40.181Z,100501.41
2022-08-25T00:49:24.688Z,100458.78
2022-08-25T00:52:14.218Z,100500.81
2022-08-25T00:55:07.856Z,100458.38
2022-08-25T00:57:44.050Z,100464.00
2022-08-25T01:00:16.738Z,100500.41
2022-08-25T01:02:43.736Z,100507.06
2022-08-25T01:05:12.611Z,100485.84
2022-08-25T01:07:41.760Z,100454.84
2022-08-25T01:10:13.570Z,100455.91
2022-08-25T01:12:41.296Z,100476.50
2022-08-25T01:15:10.528Z,100430.38
2022-08-25T01:17:55.736Z,100487.31
2022-08-25T01:20:29.349Z,100439.69
2022-08-25T01:22:57.501Z,100462.78
2022-08-25T01:25:40.144Z,100485.41
2022-08-25T01:28:07.245Z,100440.94
2022-08-25T01:30:35.338Z,100421.84
2022-08-25T01:33:07.558Z,100480.03
2022-08-25T01:35:35.715Z,100456.72
2022-08-25T01:38:05.897Z,100464.41
2022-08-25T01:40:34.167Z,100475.63
2022-08-25T01:43:07.250Z,100469.19
2022-08-25T01:45:35.113Z,100472.13
2022-08-25T01:48:03.034Z,100467.75
2022-08-25T01:50:29.987Z,100433.47
2022-08-25T01:53:28.380Z,100476.72
2022-08-25T01:56:02.725Z,100440.97
2022-08-25T01:58:35.931Z,100326.47
2022-08-25T02:01:09.563Z,100474.19
2022-08-25T02:03:42.231Z,100463.78
2022-08-25T02:06:13.046Z,100478.53
2022-08-25T02:08:41.367Z,100415.41
2022-08-25T02:11:12.520Z,100462.34
2022-08-25T02:13:41.263Z,100483.56
2022-08-25T02:16:10.502Z,100483.75
2022-08-25T02:18:37.441Z,100423.69
2022-08-25T02:21:04.590Z,100466.50
2022-08-25T02:23:31.820Z,100475.84
2022-08-25T02:25:58.826Z,100344.91
2022-08-25T02:28:26.043Z,100445.13
2022-08-25T02:31:01.122Z,100475.66
2022-08-25T02:33:33.879Z,100396.66
2022-08-25T02:36:05.277Z,100483.97
2022-08-25T02:38:32.105Z,100481.88
2022-08-25T02:41:00.121Z,100480.84
2022-08-25T02:43:28.974Z,100476.91
2022-08-25T02:45:56.549Z,100411.00
2022-08-25T02:48:23.783Z,100472.72
2022-08-25T02:50:52.647Z,100471.91
2022-08-25T02:53:20.366Z,100468.38
2022-08-25T02:55:48.007Z,100458.81
2022-08-25T02:58:15.678Z,100466.50
2022-08-25T03:00:42.721Z,100379.44
2022-08-25T03:03:10.266Z,100425.16
2022-08-25T03:05:37.377Z,100340.16
2022-08-25T03:08:05.929Z,100444.25
2022-08-25T03:10:33.587Z,100464.63
2022-08-25T03:13:00.569Z,100423.25
2022-08-25T03:15:27.879Z,100480.66
2022-08-25T03:17:59.799Z,100482.31
2022-08-25T03:20:28.493Z,100456.91
2022-08-25T03:22:55.575Z,100472.13
2022-08-25T03:25:41.060Z,100447.41
2022-08-25T03:28:08.845Z,100372.75
2022-08-25T03:30:35.909Z,100460.69
2022-08-25T03:33:03.889Z,100458.19
2022-08-25T03:35:31.036Z,100484.16
2022-08-25T03:37:59.263Z,100468.78
2022-08-25T03:40:26.700Z,100451.91
2022-08-25T03:42:55.468Z,100495.59
2022-08-25T03:45:22.963Z,100490.19
2022-08-25T03:47:50.740Z,100451.47
2022-08-25T03:50:20.123Z,100508.69
2022-08-25T03:52:53.854Z,100511.16
2022-08-25T03:55:23.111Z,100499.31
2022-08-25T03:57:51.017Z,100479.94
2022-08-25T04:00:18.934Z,100503.44
2022-08-25T04:02:46.316Z,100463.53
2022-08-25T04:05:14.227Z,100509.50
2022-08-25T04:07:42.808Z,100496.19
2022-08-25T04:10:10.900Z,100433.81
2022-08-25T04:12:38.275Z,100405.72
2022-08-25T04:15:06.616Z,100473.50
2022-08-25T04:17:34.150Z,100457.28
2022-08-25T04:20:01.993Z,100480.59
2022-08-25T04:22:29.929Z,100500.16
2022-08-25T04:24:59.126Z,100490.78
2022-08-25T04:27:25.921Z,100493.31
2022-08-25T04:29:52.670Z,100436.19
2022-08-25T04:32:19.901Z,100483.97
2022-08-25T04:34:46.795Z,100497.06
2022-08-25T04:37:13.556Z,100460.47
2022-08-25T04:39:40.753Z,100474.41
2022-08-25T04:42:07.813Z,100363.69
2022-08-25T04:44:34.742Z,100363.28
2022-08-25T04:47:02.178Z,100450.28
2022-08-25T04:49:29.034Z,100439.88
2022-08-25T04:51:57.572Z,100434.28
2022-08-25T04:54:24.814Z,100485.69
2022-08-25T04:56:54.234Z,100502.75
2022-08-25T04:59:30.390Z,100470.75
2022-08-25T05:02:02.036Z,100499.81
2022-08-25T05:04:29.515Z,100488.97
2022-08-25T05:06:58.203Z,100497.44
2022-08-25T05:09:26.355Z,100463.19
2022-08-25T05:11:53.894Z,100499.94
2022-08-25T05:14:23.168Z,100489.66
2022-08-25T05:16:54.076Z,100490.69
2022-08-25T05:19:20.969Z,100471.81
2022-08-25T05:21:48.009Z,100447.31
2022-08-25T05:24:14.884Z,100486.13
2022-08-25T05:26:41.934Z,100452.88
2022-08-25T05:29:10.880Z,100492.25
2022-08-25T05:31:42.385Z,100479.59
2022-08-25T05:34:10.232Z,100485.53
2022-08-25T05:36:38.447Z,100421.75
2022-08-25T05:39:05.423Z,100479.59
2022-08-25T05:41:33.478Z,100431.25
2022-08-25T05:44:00.469Z,100472.06
2022-08-25T05:46:27.558Z,100431.38
2022-08-25T05:48:59.181Z,100485.50
2022-08-25T05:51:26.749Z,100439.34
2022-08-25T05:53:54.087Z,100463.22
2022-08-25T05:56:22.522Z,100428.78
2022-08-25T05:58:50.402Z,100482.66
2022-08-25T06:01:43.494Z,100430.84
2022-08-25T06:04:13.655Z,100427.22
2022-08-25T06:06:41.267Z,100425.56
2022-08-25T06:09:09.752Z,100482.34
2022-08-25T06:11:39.973Z,100445.13
2022-08-25T06:14:09.856Z,100405.22
2022-08-25T06:16:39.187Z,100465.25
2022-08-25T06:19:08.886Z,100409.72
2022-08-25T06:21:36.084Z,100404.44
2022-08-25T06:24:02.993Z,100476.72
2022-08-25T06:26:29.953Z,100460.06
2022-08-25T06:28:56.838Z,100444.28
2022-08-25T06:31:24.072Z,100473.41
2022-08-25T06:33:52.272Z,100442.78
2022-08-25T06:36:19.575Z,100480.56
2022-08-25T06:38:47.667Z,100484.13
2022-08-25T06:41:16.421Z,100479.41
2022-08-25T06:43:48.173Z,100462.22
2022-08-25T06:46:23.304Z,100478.31
2022-08-25T06:49:03.952Z,100450.28
2022-08-25T06:51:31.045Z,100481.66
2022-08-25T06:53:57.780Z,100486.50
2022-08-25T06:56:24.538Z,100482.25
2022-08-25T06:58:53.745Z,100484.41
2022-08-25T07:01:25.915Z,100476.06
2022-08-25T07:03:59.453Z,100484.47
2022-08-25T07:06:35.718Z,100482.09
2022-08-25T07:09:05.211Z,100479.38
2022-08-25T07:11:34.381Z,100460.81
2022-08-25T07:14:03.016Z,100476.97
2022-08-25T07:16:31.479Z,100485.16
2022-08-25T07:19:00.692Z,100467.50
2022-08-25T07:21:33.453Z,100405.50
2022-08-25T07:24:03.458Z,100366.25
2022-08-25T07:26:39.443Z,100407.34
2022-08-25T07:29:14.057Z,100373.13
2022-08-25T07:31:42.000Z,100379.25
2022-08-25T07:34:28.610Z,100478.19
2022-08-25T07:36:57.390Z,100471.41
2022-08-25T07:39:26.369Z,100437.56
2022-08-25T07:41:53.457Z,100466.38
2022-08-25T07:44:22.362Z,100417.63
2022-08-25T07:46:51.314Z,100455.53
2022-08-25T07:49:23.358Z,100444.69
2022-08-25T07:52:03.916Z,100447.75
2022-08-25T07:54:35.234Z,100450.16
2022-08-25T07:57:04.073Z,100430.09
2022-08-25T07:59:39.068Z,100457.00
2022-08-25T08:02:17.987Z,100311.38
2022-08-25T08:05:27.583Z,100449.00
2022-08-25T08:07:55.367Z,100289.31
2022-08-25T08:10:53.520Z,100344.56
2022-08-25T08:13:26.815Z,100404.00
2022-08-25T08:15:54.714Z,100413.34
2022-08-25T08:18:22.779Z,100426.47
2022-08-25T08:20:50.332Z,100425.34
2022-08-25T08:23:17.797Z,100425.19
2022-08-25T08:25:46.947Z,100427.75
2022-08-25T08:28:13.852Z,100432.41
2022-08-25T08:30:52.731Z,100425.41
2022-08-25T08:33:34.107Z,100420.34
2022-08-25T08:36:09.682Z,100419.00
2022-08-25T08:38:37.643Z,100420.59
2022-08-25T08:41:40.074Z,100419.00
2022-08-25T08:44:42.639Z,100410.56
2022-08-25T08:47:28.070Z,100413.78
2022-08-25T08:50:04.449Z,100405.44
2022-08-25T08:52:40.888Z,100415.31
2022-08-25T08:55:11.857Z,100412.91
2022-08-25T08:57:44.696Z,100412.66
2022-08-25T09:00:12.366Z,100408.28
2022-08-25T09:02:51.724Z,100399.38
2022-08-25T09:05:21.155Z,100403.53
2022-08-25T09:07:54.744Z,100391.50
2022-08-25T09:10:22.990Z,100394.25
2022-08-25T09:13:01.828Z,100392.44
2022-08-25T09:16:10.766Z,100393.06
2022-08-25T09:18:57.449Z,100393.94
2022-08-25T09:21:34.697Z,100392.53
2022-08-25T09:24:11.633Z,100378.31
2022-08-25T09:26:49.438Z,100377.28
2022-08-25T09:29:21.127Z,100368.34
2022-08-25T09:31:48.560Z,100363.72
2022-08-25T09:34:20.096Z,100367.81
2022-08-25T09:36:48.607Z,100365.91
2022-08-25T09:39:15.682Z,100362.91
2022-08-25T09:41:44.621Z,100355.84
2022-08-25T09:44:30.565Z,100352.06
2022-08-25T09:47:02.422Z,100349.38
2022-08-25T09:49:54.613Z,100344.19
2022-08-25T09:52:26.403Z,100344.22
2022-08-25T09:55:17.611Z,100341.59
2022-08-25T09:57:52.998Z,100344.03
2022-08-25T10:00:22.793Z,100342.66
2022-08-25T10:03:18.441Z,100334.72
2022-08-25T10:06:02.726Z,100331.44
2022-08-25T10:08:33.035Z,100335.28
2022-08-25T10:11:02.392Z,100327.09
2022-08-25T10:13:37.297Z,100323.53
2022-08-25T10:16:20.003Z,100324.69
2022-08-25T10:22:32.545Z,100317.34
2022-08-25T10:25:04.630Z,100316.28
2022-08-25T10:27:34.277Z,100311.88
2022-08-25T10:30:07.711Z,100313.53
2022-08-25T10:32:53.633Z,100300.38
2022-08-25T10:35:24.120Z,100303.63
2022-08-25T10:37:56.729Z,100300.09
2022-08-25T10:40:27.193Z,100289.09
2022-08-25T10:43:10.894Z,100290.75
2022-08-25T10:45:43.560Z,100286.06
2022-08-25T10:48:13.442Z,100282.47
2022-08-25T10:50:49.141Z,100280.56
2022-08-25T10:53:29.070Z,100280.03
2022-08-25T10:56:03.171Z,100276.44
2022-08-25T10:58:46.064Z,100266.84
2022-08-25T11:01:19.015Z,100269.28
2022-08-25T11:04:05.002Z,100263.50
2022-08-25T11:06:42.199Z,100262.38
2022-08-25T11:09:13.053Z,100259.06
2022-08-25T11:11:53.586Z,100261.50
2022-08-25T11:14:26.532Z,100255.78
2022-08-25T11:17:02.075Z,100255.28
2022-08-25T11:19:39.820Z,100245.13
2022-08-25T11:22:20.490Z,100251.38
2022-08-25T11:24:55.799Z,100251.66
2022-08-25T11:27:24.356Z,100243.44
2022-08-25T11:29:59.728Z,100242.91
2022-08-25T11:32:27.635Z,100238.19
2022-08-25T11:34:55.587Z,100228.81
2022-08-25T11:37:27.873Z,100226.63
2022-08-25T11:39:57.891Z,100229.84
2022-08-25T11:42:42.983Z,100220.78
2022-08-25T11:45:13.104Z,100210.13
2022-08-25T11:47:55.752Z,100219.94
2022-08-25T11:50:35.029Z,100213.34
2022-08-25T11:53:28.329Z,100213.03
2022-08-25T11:56:02.848Z,100204.72
2022-08-25T11:58:37.248Z,100205.75
2022-08-25T12:01:05.914Z,100210.13
2022-08-25T12:03:32.726Z,100198.28
2022-08-25T12:06:14.560Z,100195.25
2022-08-25T12:08:54.086Z,100194.69
2022-08-25T12:11:42.886Z,100203.72
2022-08-25T12:14:22.213Z,100193.97
2022-08-25T12:16:51.892Z,100194.78
2022-08-25T12:19:27.028Z,100191.44
2022-08-25T12:22:15.798Z,100190.22
2022-08-25T12:24:47.944Z,100194.63
2022-08-25T12:27:21.065Z,100173.25
2022-08-25T12:29:47.846Z,100181.59
2022-08-25T12:32:17.339Z,100186.88
2022-08-25T12:34:43.889Z,100170.03
2022-08-25T12:37:14.286Z,100173.13
2022-08-25T12:39:46.736Z,100169.56
2022-08-25T12:42:26.072Z,100148.09
2022-08-25T12:45:14.185Z,100162.44
2022-08-25T12:47:44.765Z,100166.47
2022-08-25T12:50:35.289Z,100176.34
2022-08-25T12:53:22.476Z,100169.84
2022-08-25T12:55:56.726Z,100154.19
2022-08-25T12:58:38.677Z,100151.34
2022-08-25T13:01:35.122Z,100151.06
2022-08-25T13:04:16.410Z,100148.38
2022-08-25T13:09:45.834Z,100136.91
2022-08-25T13:12:22.264Z,100134.50
2022-08-25T13:14:56.415Z,100128.34
2022-08-25T13:17:30.541Z,100127.47
2022-08-25T13:20:13.905Z,100131.72
2022-08-25T13:22:41.033Z,100129.34
2022-08-25T13:25:14.431Z,100129.28
2022-08-25T13:27:41.067Z,100122.63
2022-08-25T13:30:10.580Z,100127.06
2022-08-25T13:32:39.004Z,100127.78
2022-08-25T13:35:17.558Z,100128.50
2022-08-25T13:37:46.914Z,100130.34
2022-08-25T13:40:25.883Z,100129.09
2022-08-25T13:43:05.738Z,100132.16
2022-08-25T13:45:41.457Z,100126.63
2022-08-25T13:48:23.080Z,100120.75
2022-08-25T13:50:53.127Z,100124.69
2022-08-25T13:53:26.679Z,100131.03
2022-08-25T13:56:01.544Z,100126.03
2022-08-25T13:58:39.006Z,100125.00
2022-08-25T14:01:49.210Z,100119.22
2022-08-25T14:04:21.886Z,100116.91
2022-08-25T14:06:49.014Z,100117.59
2022-08-25T14:09:18.116Z,100110.88
2022-08-25T14:11:56.495Z,100116.69
2022-08-25T14:14:23.278Z,100105.66
2022-08-25T14:16:58.477Z,100109.34
2022-08-25T14:19:25.830Z,100105.28
2022-08-25T14:21:57.612Z,100100.34
2022-08-25T14:24:24.569Z,100108.78
2022-08-25T14:26:54.472Z,100108.03
2022-08-25T14:29:22.211Z,100103.19
2022-08-25T14:31:49.184Z,100112.94
2022-08-25T14:34:18.196Z,100108.81
2022-08-25T14:36:48.410Z,100099.16
2022-08-25T14:39:15.034Z,100109.22
2022-08-25T14:41:43.126Z,100106.25
2022-08-25T14:44:11.127Z,100107.56
2022-08-25T14:46:40.644Z,100111.88
2022-08-25T14:49:10.897Z,100117.84
2022-08-25T14:51:39.747Z,100106.41
2022-08-25T14:54:09.721Z,100116.00
2022-08-25T14:56:37.958Z,100116.38
2022-08-25T14:59:09.722Z,100116.00
2022-08-25T15:01:36.510Z,100116.66
2022-08-25T15:04:05.828Z,100117.38
2022-08-25T15:06:34.481Z,100111.22
2022-08-25T15:09:13.614Z,100108.38
2022-08-25T15:11:42.257Z,100105.06
2022-08-25T15:14:10.648Z,100102.69
2022-08-25T15:16:39.563Z,100110.19
2022-08-25T15:19:07.758Z,100110.53
2022-08-25T15:21:35.842Z,100106.81
2022-08-25T15:24:03.639Z,100108.59
2022-08-25T15:26:31.258Z,100109.44
2022-08-25T15:28:59.278Z,100105.66
2022-08-25T15:31:26.525Z,100104.03
2022-08-25T15:33:53.710Z,100108.13
2022-08-25T15:36:23.358Z,100109.44
2022-08-25T15:38:53.248Z,100104.78
2022-08-25T15:41:21.762Z,100107.91
2022-08-25T15:43:53.823Z,100105.38
2022-08-25T15:46:21.869Z,100100.09
2022-08-25T15:48:48.755Z,100093.50
2022-08-25T15:51:16.612Z,100098.44
2022-08-25T15:53:43.827Z,100086.47
2022-08-25T15:56:14.200Z,100095.81
2022-08-25T15:58:49.683Z,100088.16
2022-08-25T16:01:19.332Z,100087.38
2022-08-25T16:03:46.525Z,100084.91
2022-08-25T16:06:13.201Z,100087.38
2022-08-25T16:08:40.363Z,100096.25
2022-08-25T16:11:18.645Z,100094.06
2022-08-25T16:13:46.855Z,100083.91
2022-08-25T16:16:15.975Z,100086.44
2022-08-25T16:18:43.757Z,100081.81
2022-08-25T16:21:12.612Z,100082.94
2022-08-25T16:23:40.253Z,100079.16
2022-08-25T16:26:08.962Z,100083.94
2022-08-25T16:28:37.513Z,100087.56
2022-08-25T16:31:05.069Z,100082.66
2022-08-25T16:33:33.666Z,100085.97
2022-08-25T16:36:05.029Z,100082.47
2022-08-25T16:38:33.819Z,100085.84
2022-08-25T16:41:01.784Z,100081.50
2022-08-25T16:43:31.143Z,100074.91
2022-08-25T16:45:58.754Z,100079.34
2022-08-25T16:48:25.441Z,100080.22
2022-08-25T16:50:52.502Z,100081.09
2022-08-25T16:53:37.694Z,100083.06
2022-08-25T16:56:08.664Z,100085.03
2022-08-25T16:58:38.092Z,100089.44
2022-08-25T17:01:12.584Z,100089.78
2022-08-25T17:03:44.088Z,100089.28
2022-08-25T17:06:14.114Z,100096.44
2022-08-25T17:08:42.216Z,100097.00
2022-08-25T17:11:14.622Z,100090.47
2022-08-25T17:13:44.837Z,100094.34
2022-08-25T17:16:14.586Z,100093.00
2022-08-25T17:18:41.999Z,100091.94
2022-08-25T17:21:12.997Z,100033.66
2022-08-25T17:23:46.907Z,100090.63
2022-08-25T17:26:15.213Z,100081.06
2022-08-25T17:28:42.390Z,100095.91
2022-08-25T17:31:10.421Z,100092.88
2022-08-25T17:33:37.217Z,100089.31
2022-08-25T17:36:05.895Z,100092.88
2022-08-25T17:38:33.744Z,100092.88
2022-08-25T17:41:01.935Z,100101.91
2022-08-25T17:43:29.913Z,100096.72
2022-08-25T17:45:58.104Z,100091.25
2022-08-25T17:48:26.221Z,100095.34
2022-08-25T17:50:53.583Z,100100.00
2022-08-25T17:53:40.369Z,100096.97
2022-08-25T17:56:14.647Z,100091.50
2022-08-25T17:58:41.747Z,100101.88
2022-08-25T18:01:14.769Z,100101.31
2022-08-25T18:03:43.034Z,100108.16
2022-08-25T18:06:11.364Z,100105.66
2022-08-25T18:08:42.596Z,100113.03
2022-08-25T18:11:09.841Z,100117.66
2022-08-25T18:13:38.346Z,100118.72
2022-08-25T18:16:05.847Z,100119.25
2022-08-25T18:18:34.569Z,100118.97
2022-08-25T18:21:02.678Z,100122.81
2022-08-25T18:23:29.754Z,100119.50
2022-08-25T18:26:00.789Z,100122.72
2022-08-25T18:28:28.832Z,100128.41
2022-08-25T18:30:56.279Z,100124.00
2022-08-25T18:33:23.186Z,100125.09
2022-08-25T18:35:49.984Z,100125.63
2022-08-25T18:38:36.411Z,100124.25
2022-08-25T18:41:05.714Z,100121.78
2022-08-25T18:43:33.802Z,100118.47
2022-08-25T18:46:01.466Z,100125.56
2022-08-25T18:48:28.541Z,100125.56
2022-08-25T18:50:56.660Z,100131.31
2022-08-25T18:53:36.661Z,100122.53
2022-08-25T18:56:11.727Z,100126.59
2022-08-25T18:58:38.353Z,100126.25
2022-08-25T19:01:07.998Z,100128.94
2022-08-25T19:03:38.331Z,100129.72
2022-08-25T19:06:05.771Z,100130.25
2022-08-25T19:08:32.698Z,100131.03
2022-08-25T19:10:59.558Z,100129.34
2022-08-25T19:13:26.598Z,100131.53
2022-08-25T19:15:53.505Z,100123.84
2022-08-25T19:18:26.165Z,100123.00
2022-08-25T19:20:55.873Z,100127.59
2022-08-25T19:23:22.901Z,100123.19
2022-08-25T19:25:49.508Z,100128.84
2022-08-25T19:28:16.288Z,100124.13
2022-08-25T19:30:46.426Z,100126.81
2022-08-25T19:33:42.101Z,100118.59
2022-08-25T19:36:05.089Z,100121.03
2022-08-25T19:38:35.348Z,100127.25
2022-08-25T19:41:02.631Z,100118.19
2022-08-25T19:43:38.794Z,100129.88
2022-08-25T19:46:06.109Z,100124.38
2022-08-25T19:48:33.525Z,100119.13
2022-08-25T19:51:00.445Z,100128.06
2022-08-25T19:53:27.151Z,100118.47
2022-08-25T19:55:54.196Z,100122.13
2022-08-25T19:58:21.014Z,100120.63
2022-08-25T20:00:51.120Z,100127.81
2022-08-25T20:03:20.500Z,100118.16
2022-08-25T20:05:48.546Z,100124.84
2022-08-25T20:08:15.774Z,100128.09
2022-08-25T20:10:42.413Z,100132.38
2022-08-25T20:13:09.499Z,100128.75
2022-08-25T20:15:37.225Z,100126.72
2022-08-25T20:18:06.246Z,100124.16
2022-08-25T20:20:34.682Z,100129.13
2022-08-25T20:23:21.467Z,100127.47
2022-08-25T20:25:50.210Z,100119.78
2022-08-25T20:28:18.863Z,100119.38
2022-08-25T20:30:46.085Z,100122.84
2022-08-25T20:33:13.344Z,100130.16
2022-08-25T20:35:47.898Z,100132.53
2022-08-25T20:38:14.690Z,100131.13
2022-08-25T20:40:41.711Z,100139.22
2022-08-25T20:43:10.338Z,100150.03
2022-08-25T20:45:39.583Z,100141.16
2022-08-25T20:48:06.308Z,100151.06
2022-08-25T20:50:33.792Z,100150.91
2022-08-25T20:53:01.043Z,100146.34
2022-08-25T20:55:27.893Z,100149.97
2022-08-25T20:57:55.153Z,100144.34
2022-08-25T21:00:23.604Z,100147.44
2022-08-25T21:02:51.990Z,100147.81
2022-08-25T21:05:19.612Z,100146.91
2022-08-25T21:07:46.538Z,100150.34
2022-08-25T21:10:15.978Z,100148.09
2022-08-25T21:12:43.015Z,100143.72
2022-08-25T21:15:10.482Z,100141.84
2022-08-25T21:17:37.102Z,100135.81
2022-08-25T21:20:05.026Z,100138.69
2022-08-25T21:22:33.555Z,100145.44
2022-08-25T21:25:00.452Z,100138.00
2022-08-25T21:27:27.323Z,100138.97
2022-08-25T21:29:55.407Z,100134.50
2022-08-25T21:32:22.596Z,100141.47
2022-08-25T21:34:53.656Z,100130.50
2022-08-25T21:37:20.663Z,100130.97
2022-08-25T21:39:47.298Z,100134.72
2022-08-25T21:42:13.942Z,100131.44
2022-08-25T21:44:41.020Z,100125.16
2022-08-25T21:47:07.607Z,100130.25
2022-08-25T21:49:37.615Z,100129.34
2022-08-25T21:52:05.029Z,100130.06
2022-08-25T21:54:31.908Z,100128.28
2022-08-25T21:57:02.870Z,100132.31
2022-08-25T21:59:35.077Z,100134.19
2022-08-25T22:02:03.086Z,100132.19
2022-08-25T22:04:31.011Z,100135.63
2022-08-25T22:06:58.445Z,100133.97
2022-08-25T22:09:26.294Z,100121.09
2022-08-25T22:11:55.791Z,100122.63
2022-08-25T22:14:23.430Z,100120.66
2022-08-25T22:16:51.993Z,100119.44
2022-08-25T22:19:21.674Z,100118.25
2022-08-25T22:21:50.244Z,100116.25
2022-08-25T22:24:17.853Z,100124.50
2022-08-25T22:26:47.776Z,100114.09
2022-08-25T22:29:24.822Z,100118.03
2022-08-25T22:31:59.324Z,100120.38
2022-08-25T22:34:34.806Z,100112.81
2022-08-25T22:37:06.975Z,100117.28
2022-08-25T22:39:35.019Z,100114.91
2022-08-25T22:42:02.425Z,100116.19
2022-08-25T22:44:29.535Z,100119.38
2022-08-25T22:46:56.209Z,100117.34
2022-08-25T22:49:22.969Z,100119.69
2022-08-25T22:51:50.001Z,100114.97
2022-08-25T22:54:17.904Z,100114.44
2022-08-25T22:56:44.553Z,100115.63
2022-08-25T22:59:12.449Z,100114.06
2022-08-25T23:01:39.669Z,100111.22
2022-08-25T23:04:06.411Z,100104.50
2022-08-25T23:06:34.502Z,100111.34
2022-08-25T23:09:01.736Z,100110.06
2022-08-25T23:11:29.043Z,100106.63
2022-08-25T23:13:57.122Z,100110.25
2022-08-25T23:16:24.091Z,100106.22
2022-08-25T23:18:51.186Z,100108.41
2022-08-25T23:21:40.931Z,100112.84
2022-08-25T23:24:08.810Z,100110.84
2022-08-25T23:26:38.079Z,100111.75
2022-08-25T23:29:17.851Z,100109.03
2022-08-25T23:31:47.516Z,100101.38
2022-08-25T23:34:15.442Z,100101.59
2022-08-25T23:36:42.725Z,100092.63
2022-08-25T23:39:09.526Z,100087.06
2022-08-25T23:41:36.829Z,100092.91
2022-08-25T23:44:05.354Z,100093.25
2022-08-25T23:46:33.082Z,100093.91
2022-08-25T23:49:00.180Z,100092.72
2022-08-25T23:51:31.165Z,100092.34
2022-08-25T23:53:59.350Z,100086.91
2022-08-25T23:56:26.080Z,100086.13
2022-08-25T23:58:52.794Z,100046.19
